Time,TemperatureF,DewpointF,PressureIn,WindDirection,WindDirectionDegrees,WindSpeedMPH,WindSpeedGustMPH,Humidity,HourlyPrecipIn,Conditions,Clouds,dailyrainin,SoftwareType,DateUTC
2013-01-09 00:01:00,25.7,14.9,30.17,North,0,0.0,0.0,63,0.00,,,0.00,WUHU216HW,2013-01-09 07:01:00,
2013-01-09 00:06:00,25.7,15.6,30.18,North,0,0.0,0.0,65,0.00,,,0.00,WUHU216HW,2013-01-09 07:06:00,
2013-01-09 00:11:00,25.7,15.2,30.18,North,0,0.0,0.0,64,0.00,,,0.00,WUHU216HW,2013-01-09 07:11:00,
2013-01-09 00:16:00,25.6,15.4,30.17,North,0,0.0,0.0,65,0.00,,,0.00,WUHU216HW,2013-01-09 07:16:00,
2013-01-09 00:21:00,25.6,15.0,30.17,North,0,0.0,0.0,64,0.00,,,0.00,WUHU216HW,2013-01-09 07:21:00,
2013-01-09 00:26:00,25.2,14.7,30.17,North,0,0.0,0.0,64,0.00,,,0.00,WUHU216HW,2013-01-09 07:26:00,
2013-01-09 00:31:00,24.8,14.3,30.18,North,0,0.0,0.0,64,0.00,,,0.00,WUHU216HW,2013-01-09 07:31:00,
2013-01-09 00:36:00,24.8,15.0,30.18,North,0,0.0,0.0,66,0.00,,,0.00,WUHU216HW,2013-01-09 07:36:00,
2013-01-09 00:41:00,24.8,15.0,30.18,North,0,0.0,0.0,66,0.00,,,0.00,WUHU216HW,2013-01-09 07:41:00,
2013-01-09 00:46:00,24.8,15.0,30.18,North,0,0.0,0.0,66,0.00,,,0.00,WUHU216HW,2013-01-09 07:46:00,
2013-01-09 00:51:00,24.8,15.0,30.18,North,0,0.0,0.0,66,0.00,,,0.00,WUHU216HW,2013-01-09 07:51:00,
2013-01-09 00:56:00,24.5,14.3,30.18,North,0,0.0,0.0,65,0.00,,,0.00,WUHU216HW,2013-01-09 07:56:00,
2013-01-09 01:01:00,24.3,14.5,30.18,North,0,0.0,0.0,66,0.00,,,0.00,WUHU216HW,2013-01-09 08:01:00,
2013-01-09 01:06:00,24.1,14.3,30.18,North,0,0.0,0.0,66,0.00,,,0.00,WUHU216HW,2013-01-09 08:06:00,
2013-01-09 01:11:00,24.1,14.3,30.18,North,0,0.0,0.0,66,0.00,,,0.00,WUHU216HW,2013-01-09 08:11:00,
2013-01-09 01:16:00,23.8,14.1,30.18,North,0,0.0,0.0,66,0.00,,,0.00,WUHU216HW,2013-01-09 08:16:00,
2013-01-09 01:21:00,23.6,13.9,30.18,North,0,0.0,0.0,66,0.00,,,0.00,WUHU216HW,2013-01-09 08:21:00,
2013-01-09 01:26:00,23.4,13.7,30.18,North,0,0.0,0.0,66,0.00,,,0.00,WUHU216HW,2013-01-09 08:26:00,
2013-01-09 01:31:00,23.8,14.3,30.18,North,0,0.0,0.0,67,0.00,,,0.00,WUHU216HW,2013-01-09 08:31:00,
2013-01-09 01:36:00,24.3,15.6,30.19,North,0,0.0,0.0,69,0.00,,,0.00,WUHU216HW,2013-01-09 08:36:00,
2013-01-09 01:41:00,25.2,15.7,30.19,North,0,0.0,0.0,67,0.00,,,0.00,WUHU216HW,2013-01-09 08:41:00,
2013-01-09 01:46:00,25.0,15.6,30.19,North,0,0.0,0.0,67,0.00,,,0.00,WUHU216HW,2013-01-09 08:46:00,
2013-01-09 01:51:00,24.8,15.0,30.18,North,0,0.0,0.0,66,0.00,,,0.00,WUHU216HW,2013-01-09 08:51:00,
2013-01-09 01:56:00,24.8,15.7,30.18,North,0,0.0,0.0,68,0.00,,,0.00,WUHU216HW,2013-01-09 08:56:00,
2013-01-09 02:01:00,24.8,15.0,30.19,North,0,0.0,0.0,66,0.00,,,0.00,WUHU216HW,2013-01-09 09:01:00,
2013-01-09 02:06:00,24.3,14.5,30.19,North,0,0.0,0.0,66,0.00,,,0.00,WUHU216HW,2013-01-09 09:06:00,
2013-01-09 02:11:00,24.1,14.7,30.19,North,0,0.0,0.0,67,0.00,,,0.00,WUHU216HW,2013-01-09 09:11:00,
2013-01-09 02:16:00,23.9,15.2,30.19,North,0,0.0,0.0,69,0.00,,,0.00,WUHU216HW,2013-01-09 09:16:00,
2013-01-09 02:21:00,23.8,14.7,30.19,North,0,0.0,0.0,68,0.00,,,0.00,WUHU216HW,2013-01-09 09:21:00,
2013-01-09 02:26:00,23.6,14.9,30.19,North,0,0.0,0.0,69,0.00,,,0.00,WUHU216HW,2013-01-09 09:26:00,
2013-01-09 02:31:00,23.4,14.8,30.19,North,0,0.0,0.0,69,0.00,,,0.00,WUHU216HW,2013-01-09 09:31:00,
2013-01-09 02:36:00,23.2,14.2,30.19,North,0,0.0,0.0,68,0.00,,,0.00,WUHU216HW,2013-01-09 09:36:00,
2013-01-09 02:41:00,23.0,14.4,30.19,North,0,0.0,0.0,69,0.00,,,0.00,WUHU216HW,2013-01-09 09:41:00,
2013-01-09 02:46:00,22.7,13.7,30.19,North,0,0.0,0.0,68,0.00,,,0.00,WUHU216HW,2013-01-09 09:46:00,
2013-01-09 02:51:00,22.5,13.5,30.19,North,0,0.0,0.0,68,0.00,,,0.00,WUHU216HW,2013-01-09 09:51:00,
2013-01-09 02:56:00,22.1,13.1,30.19,North,0,0.0,0.0,68,0.00,,,0.00,WUHU216HW,2013-01-09 09:56:00,
2013-01-09 03:01:00,22.1,13.5,30.18,North,0,0.0,0.0,69,0.00,,,0.00,WUHU216HW,2013-01-09 10:01:00,
2013-01-09 03:06:00,22.0,13.0,30.19,North,0,0.0,0.0,68,0.00,,,0.00,WUHU216HW,2013-01-09 10:06:00,
2013-01-09 03:11:00,22.0,13.3,30.19,North,0,0.0,0.0,69,0.00,,,0.00,WUHU216HW,2013-01-09 10:11:00,
2013-01-09 03:16:00,22.0,13.3,30.19,North,0,0.0,0.0,69,0.00,,,0.00,WUHU216HW,2013-01-09 10:16:00,
2013-01-09 03:21:00,22.0,13.3,30.19,North,0,0.0,0.0,69,0.00,,,0.00,WUHU216HW,2013-01-09 10:21:00,
2013-01-09 03:26:00,21.8,12.8,30.18,North,0,0.0,0.0,68,0.00,,,0.00,WUHU216HW,2013-01-09 10:26:00,
2013-01-09 03:31:00,21.6,12.6,30.18,North,0,0.0,0.0,68,0.00,,,0.00,WUHU216HW,2013-01-09 10:31:00,
2013-01-09 03:36:00,21.4,12.4,30.18,North,0,0.0,0.0,68,0.00,,,0.00,WUHU216HW,2013-01-09 10:36:00,
2013-01-09 03:41:00,21.2,12.6,30.18,North,0,0.0,0.0,69,0.00,,,0.00,WUHU216HW,2013-01-09 10:41:00,
2013-01-09 03:46:00,21.2,12.6,30.18,North,0,0.0,0.0,69,0.00,,,0.00,WUHU216HW,2013-01-09 10:46:00,
2013-01-09 03:51:00,21.2,12.6,30.18,North,0,0.0,0.0,69,0.00,,,0.00,WUHU216HW,2013-01-09 10:51:00,
2013-01-09 03:56:00,21.2,12.6,30.18,North,0,0.0,0.0,69,0.00,,,0.00,WUHU216HW,2013-01-09 10:56:00,
2013-01-09 04:01:00,21.1,12.4,30.18,North,0,0.0,0.0,69,0.00,,,0.00,WUHU216HW,2013-01-09 11:01:00,
2013-01-09 04:06:00,20.9,11.9,30.19,North,0,0.0,0.0,68,0.00,,,0.00,WUHU216HW,2013-01-09 11:06:00,
2013-01-09 04:11:00,20.7,12.1,30.18,North,0,0.0,0.0,69,0.00,,,0.00,WUHU216HW,2013-01-09 11:11:00,
2013-01-09 04:16:00,20.5,11.9,30.18,North,0,0.0,0.0,69,0.00,,,0.00,WUHU216HW,2013-01-09 11:16:00,
2013-01-09 04:21:00,20.7,12.4,30.18,North,0,0.0,0.0,70,0.00,,,0.00,WUHU216HW,2013-01-09 11:21:00,
2013-01-09 04:26:00,20.9,12.9,30.18,North,0,0.0,0.0,71,0.00,,,0.00,WUHU216HW,2013-01-09 11:26:00,
2013-01-09 04:31:00,21.1,13.4,30.18,North,0,0.0,0.0,72,0.00,,,0.00,WUHU216HW,2013-01-09 11:31:00,
2013-01-09 04:36:00,21.1,13.1,30.18,North,0,0.0,0.0,71,0.00,,,0.00,WUHU216HW,2013-01-09 11:36:00,
2013-01-09 04:41:00,21.1,13.1,30.19,North,0,0.0,0.0,71,0.00,,,0.00,WUHU216HW,2013-01-09 11:41:00,
2013-01-09 04:46:00,20.9,12.9,30.19,North,0,0.0,0.0,71,0.00,,,0.00,WUHU216HW,2013-01-09 11:46:00,
2013-01-09 04:51:00,20.9,13.2,30.19,North,0,0.0,0.0,72,0.00,,,0.00,WUHU216HW,2013-01-09 11:51:00,
2013-01-09 04:56:00,20.9,13.2,30.19,North,0,0.0,0.0,72,0.00,,,0.00,WUHU216HW,2013-01-09 11:56:00,
2013-01-09 05:01:00,20.7,13.1,30.19,North,0,0.0,0.0,72,0.00,,,0.00,WUHU216HW,2013-01-09 12:01:00,
2013-01-09 05:06:00,20.5,12.9,30.19,North,0,0.0,0.0,72,0.00,,,0.00,WUHU216HW,2013-01-09 12:06:00,
2013-01-09 05:11:00,20.3,13.0,30.19,North,0,0.0,0.0,73,0.00,,,0.00,WUHU216HW,2013-01-09 12:11:00,
2013-01-09 05:16:00,20.5,13.5,30.19,North,0,0.0,0.0,74,0.00,,,0.00,WUHU216HW,2013-01-09 12:16:00,
2013-01-09 05:21:00,21.1,14.3,30.20,North,0,0.0,0.0,75,0.00,,,0.00,WUHU216HW,2013-01-09 12:21:00,
2013-01-09 05:26:00,21.6,15.5,30.20,North,0,0.0,0.0,77,0.00,,,0.00,WUHU216HW,2013-01-09 12:26:00,
2013-01-09 05:31:00,21.8,15.0,30.20,North,0,0.0,0.0,75,0.00,,,0.00,WUHU216HW,2013-01-09 12:31:00,
2013-01-09 05:36:00,21.8,15.0,30.21,North,0,0.0,0.0,75,0.00,,,0.00,WUHU216HW,2013-01-09 12:36:00,
2013-01-09 05:42:00,21.4,14.4,30.21,North,0,0.0,0.0,74,0.00,,,0.00,WUHU216HW,2013-01-09 12:42:00,
2013-01-09 05:47:00,21.2,14.2,30.21,North,0,0.0,0.0,74,0.00,,,0.00,WUHU216HW,2013-01-09 12:47:00,
2013-01-09 05:52:00,21.2,14.5,30.21,North,0,0.0,0.0,75,0.00,,,0.00,WUHU216HW,2013-01-09 12:52:00,
2013-01-09 05:57:00,21.2,14.2,30.21,North,0,0.0,0.0,74,0.00,,,0.00,WUHU216HW,2013-01-09 12:57:00,
2013-01-09 06:02:00,20.9,13.9,30.20,North,0,0.0,0.0,74,0.00,,,0.00,WUHU216HW,2013-01-09 13:02:00,
2013-01-09 06:07:00,20.7,14.0,30.21,North,0,0.0,0.0,75,0.00,,,0.00,WUHU216HW,2013-01-09 13:07:00,
2013-01-09 06:12:00,20.7,13.7,30.21,North,0,0.0,0.0,74,0.00,,,0.00,WUHU216HW,2013-01-09 13:12:00,
2013-01-09 06:17:00,20.5,13.8,30.21,North,0,0.0,0.0,75,0.00,,,0.00,WUHU216HW,2013-01-09 13:17:00,
2013-01-09 06:22:00,20.5,13.8,30.21,North,0,0.0,0.0,75,0.00,,,0.00,WUHU216HW,2013-01-09 13:22:00,
2013-01-09 06:27:00,20.7,14.2,30.21,North,0,0.0,0.0,76,0.00,,,0.00,WUHU216HW,2013-01-09 13:27:00,
2013-01-09 06:32:00,20.9,14.4,30.22,North,0,0.0,0.0,76,0.00,,,0.00,WUHU216HW,2013-01-09 13:32:00,
2013-01-09 06:37:00,21.1,14.3,30.22,North,0,0.0,0.0,75,0.00,,,0.00,WUHU216HW,2013-01-09 13:37:00,
2013-01-09 06:42:00,20.9,14.1,30.21,North,0,0.0,0.0,75,0.00,,,0.00,WUHU216HW,2013-01-09 13:42:00,
2013-01-09 06:47:00,20.7,13.7,30.21,North,0,0.0,0.0,74,0.00,,,0.00,WUHU216HW,2013-01-09 13:47:00,
2013-01-09 06:52:00,20.5,13.5,30.21,North,0,0.0,0.0,74,0.00,,,0.00,WUHU216HW,2013-01-09 13:52:00,
2013-01-09 06:57:00,20.5,13.5,30.21,North,0,0.0,0.0,74,0.00,,,0.00,WUHU216HW,2013-01-09 13:57:00,
2013-01-09 07:02:00,20.5,13.5,30.21,North,0,0.0,0.0,74,0.00,,,0.00,WUHU216HW,2013-01-09 14:02:00,
2013-01-09 07:07:00,20.3,13.3,30.21,North,0,0.0,0.0,74,0.00,,,0.00,WUHU216HW,2013-01-09 14:07:00,
2013-01-09 07:12:00,20.2,13.2,30.21,North,0,0.0,0.0,74,0.00,,,0.00,WUHU216HW,2013-01-09 14:12:00,
2013-01-09 07:17:00,20.2,13.4,30.22,North,0,0.0,0.0,75,0.00,,,0.00,WUHU216HW,2013-01-09 14:17:00,
2013-01-09 07:22:00,20.5,14.0,30.22,North,0,0.0,0.0,76,0.00,,,0.00,WUHU216HW,2013-01-09 14:22:00,
2013-01-09 07:27:00,20.5,13.8,30.22,North,0,0.0,0.0,75,0.00,,,0.00,WUHU216HW,2013-01-09 14:27:00,
2013-01-09 07:32:00,20.7,13.7,30.22,North,0,0.0,0.0,74,0.00,,,0.00,WUHU216HW,2013-01-09 14:32:00,
2013-01-09 07:37:00,20.9,14.1,30.22,North,0,0.0,0.0,75,0.00,,,0.00,WUHU216HW,2013-01-09 14:37:00,
2013-01-09 07:42:00,21.1,14.3,30.23,North,0,0.0,0.0,75,0.00,,,0.00,WUHU216HW,2013-01-09 14:42:00,
2013-01-09 07:47:00,21.1,14.3,30.23,North,0,0.0,0.0,75,0.00,,,0.00,WUHU216HW,2013-01-09 14:47:00,
2013-01-09 07:52:00,21.1,14.1,30.23,North,0,0.0,0.0,74,0.00,,,0.00,WUHU216HW,2013-01-09 14:52:00,
2013-01-09 07:57:00,21.2,14.5,30.23,North,0,0.0,0.0,75,0.00,,,0.00,WUHU216HW,2013-01-09 14:57:00,
2013-01-09 08:02:00,21.4,14.9,30.23,North,0,0.0,0.0,76,0.00,,,0.00,WUHU216HW,2013-01-09 15:02:00,
2013-01-09 08:07:00,22.0,15.9,30.23,North,0,0.0,0.0,77,0.00,,,0.00,WUHU216HW,2013-01-09 15:07:00,
2013-01-09 08:12:00,22.7,16.2,30.23,North,0,0.0,0.0,76,0.00,,,0.00,WUHU216HW,2013-01-09 15:12:00,
2013-01-09 08:17:00,23.0,16.3,30.23,North,0,0.0,0.0,75,0.00,,,0.00,WUHU216HW,2013-01-09 15:17:00,
2013-01-09 08:22:00,23.6,16.8,30.24,North,0,0.0,0.0,75,0.00,,,0.00,WUHU216HW,2013-01-09 15:22:00,
2013-01-09 08:27:00,24.1,17.0,30.24,North,0,0.0,0.0,74,0.00,,,0.00,WUHU216HW,2013-01-09 15:27:00,
2013-01-09 08:32:00,24.7,17.2,30.24,North,0,0.0,0.0,73,0.00,,,0.00,WUHU216HW,2013-01-09 15:32:00,
2013-01-09 08:37:00,25.4,17.9,30.24,North,0,0.0,0.0,73,0.00,,,0.00,WUHU216HW,2013-01-09 15:37:00,
2013-01-09 08:42:00,26.5,18.6,30.24,North,0,0.0,0.0,72,0.00,,,0.00,WUHU216HW,2013-01-09 15:42:00,
2013-01-09 08:47:00,27.7,19.3,30.24,North,0,0.0,0.0,70,0.00,,,0.00,WUHU216HW,2013-01-09 15:47:00,
2013-01-09 08:52:00,29.0,19.0,30.24,North,0,0.0,0.0,66,0.00,,,0.00,WUHU216HW,2013-01-09 15:52:00,
2013-01-09 08:57:00,30.8,18.5,30.24,North,0,0.0,0.0,60,0.00,,,0.00,WUHU216HW,2013-01-09 15:57:00,
2013-01-09 09:02:00,32.8,18.7,30.24,North,0,0.0,0.0,56,0.00,,,0.00,WUHU216HW,2013-01-09 16:02:00,
2013-01-09 09:07:00,34.2,18.7,30.25,North,0,0.0,0.0,53,0.00,,,0.00,WUHU216HW,2013-01-09 16:07:00,
2013-01-09 09:12:00,35.3,18.0,30.24,North,0,0.0,0.0,49,0.00,,,0.00,WUHU216HW,2013-01-09 16:12:00,
2013-01-09 09:17:00,35.6,17.8,30.24,North,0,0.0,0.0,48,0.00,,,0.00,WUHU216HW,2013-01-09 16:17:00,
2013-01-09 09:22:00,36.7,18.3,30.24,North,0,0.0,0.0,47,0.00,,,0.00,WUHU216HW,2013-01-09 16:22:00,
2013-01-09 09:27:00,37.4,17.9,30.24,North,0,0.0,0.0,45,0.00,,,0.00,WUHU216HW,2013-01-09 16:27:00,
2013-01-09 09:32:00,38.2,18.5,30.24,North,0,0.0,0.0,45,0.00,,,0.00,WUHU216HW,2013-01-09 16:32:00,
2013-01-09 09:37:00,39.1,18.4,30.24,North,0,0.0,0.0,43,0.00,,,0.00,WUHU216HW,2013-01-09 16:37:00,
2013-01-09 09:42:00,39.6,18.3,30.24,North,0,0.0,0.0,42,0.00,,,0.00,WUHU216HW,2013-01-09 16:42:00,
2013-01-09 09:47:00,41.4,19.9,30.24,North,0,0.0,0.0,42,0.00,,,0.00,WUHU216HW,2013-01-09 16:47:00,
2013-01-09 09:52:00,43.2,19.2,30.23,North,0,0.0,0.0,38,0.00,,,0.00,WUHU216HW,2013-01-09 16:52:00,
2013-01-09 09:57:00,44.3,19.4,30.23,North,0,0.0,0.0,37,0.00,,,0.00,WUHU216HW,2013-01-09 16:57:00,
2013-01-09 10:02:00,45.0,18.8,30.24,North,0,0.0,0.0,35,0.00,,,0.00,WUHU216HW,2013-01-09 17:02:00,
2013-01-09 10:07:00,45.4,19.1,30.23,North,0,0.0,0.0,35,0.00,,,0.00,WUHU216HW,2013-01-09 17:07:00,
2013-01-09 10:12:00,45.4,17.7,30.23,North,0,0.0,0.0,33,0.00,,,0.00,WUHU216HW,2013-01-09 17:12:00,
2013-01-09 10:17:00,45.7,18.1,30.23,North,0,0.0,0.0,33,0.00,,,0.00,WUHU216HW,2013-01-09 17:17:00,
2013-01-09 10:22:00,46.4,18.7,30.23,North,0,0.0,0.0,33,0.00,,,0.00,WUHU216HW,2013-01-09 17:22:00,
2013-01-09 10:27:00,47.2,19.4,30.23,North,0,0.0,0.0,33,0.00,,,0.00,WUHU216HW,2013-01-09 17:27:00,
2013-01-09 10:32:00,47.9,19.4,30.23,North,0,0.0,0.0,32,0.00,,,0.00,WUHU216HW,2013-01-09 17:32:00,
2013-01-09 10:37:00,47.9,18.7,30.22,North,0,0.0,0.0,31,0.00,,,0.00,WUHU216HW,2013-01-09 17:37:00,
2013-01-09 10:42:00,47.5,18.4,30.22,North,0,0.0,0.0,31,0.00,,,0.00,WUHU216HW,2013-01-09 17:42:00,
2013-01-09 10:47:00,47.2,18.1,30.21,North,0,0.0,0.0,31,0.00,,,0.00,WUHU216HW,2013-01-09 17:47:00,
2013-01-09 10:52:00,47.2,18.1,30.21,North,0,0.0,0.0,31,0.00,,,0.00,WUHU216HW,2013-01-09 17:52:00,
2013-01-09 10:57:00,47.3,18.2,30.21,North,0,0.0,0.0,31,0.00,,,0.00,WUHU216HW,2013-01-09 17:57:00,
2013-01-09 11:02:00,48.8,18.8,30.20,North,0,0.0,0.0,30,0.00,,,0.00,WUHU216HW,2013-01-09 18:02:00,
2013-01-09 11:07:00,49.7,18.6,30.20,North,0,0.0,0.0,29,0.00,,,0.00,WUHU216HW,2013-01-09 18:07:00,
2013-01-09 11:12:00,50.6,18.5,30.20,North,0,0.0,0.0,28,0.00,,,0.00,WUHU216HW,2013-01-09 18:12:00,
2013-01-09 11:17:00,50.8,18.6,30.19,North,0,0.0,0.0,28,0.00,,,0.00,WUHU216HW,2013-01-09 18:17:00,
2013-01-09 11:22:00,50.9,17.8,30.19,North,0,0.0,0.0,27,0.00,,,0.00,WUHU216HW,2013-01-09 18:22:00,
2013-01-09 11:27:00,50.9,17.8,30.18,North,0,0.0,0.0,27,0.00,,,0.00,WUHU216HW,2013-01-09 18:27:00,
2013-01-09 11:32:00,51.3,18.2,30.18,North,0,0.0,0.0,27,0.00,,,0.00,WUHU216HW,2013-01-09 18:32:00,
2013-01-09 11:37:00,51.7,18.5,30.18,North,0,0.0,0.0,27,0.00,,,0.00,WUHU216HW,2013-01-09 18:37:00,
2013-01-09 11:42:00,51.8,18.6,30.18,North,0,0.0,0.0,27,0.00,,,0.00,WUHU216HW,2013-01-09 18:42:00,
2013-01-09 11:47:00,51.8,18.6,30.17,North,0,0.0,0.0,27,0.00,,,0.00,WUHU216HW,2013-01-09 18:47:00,
2013-01-09 11:52:00,51.5,18.3,30.17,North,0,0.0,0.0,27,0.00,,,0.00,WUHU216HW,2013-01-09 18:52:00,
2013-01-09 11:57:00,51.3,18.2,30.16,North,0,0.0,0.0,27,0.00,,,0.00,WUHU216HW,2013-01-09 18:57:00,
2013-01-09 12:02:00,51.5,18.3,30.16,North,0,0.0,0.0,27,0.00,,,0.00,WUHU216HW,2013-01-09 19:02:00,
2013-01-09 12:07:00,52.6,19.3,30.16,North,0,0.0,0.0,27,0.00,,,0.00,WUHU216HW,2013-01-09 19:07:00,
2013-01-09 12:12:00,53.3,18.0,30.16,North,0,0.0,0.0,25,0.00,,,0.00,WUHU216HW,2013-01-09 19:12:00,
2013-01-09 12:17:00,53.8,18.5,30.16,North,0,0.0,0.0,25,0.00,,,0.00,WUHU216HW,2013-01-09 19:17:00,
2013-01-09 12:22:00,54.2,18.7,30.15,North,0,0.0,0.0,25,0.00,,,0.00,WUHU216HW,2013-01-09 19:22:00,
2013-01-09 12:27:00,55.1,18.5,30.15,North,0,0.0,0.0,24,0.00,,,0.00,WUHU216HW,2013-01-09 19:27:00,
2013-01-09 12:32:00,56.3,18.7,30.14,North,0,0.0,0.0,23,0.00,,,0.00,WUHU216HW,2013-01-09 19:32:00,
2013-01-09 12:37:00,56.5,16.9,30.14,North,0,0.0,0.0,21,0.00,,,0.00,WUHU216HW,2013-01-09 19:37:00,
2013-01-09 12:42:00,56.7,17.1,30.14,North,0,0.0,0.0,21,0.00,,,0.00,WUHU216HW,2013-01-09 19:42:00,
2013-01-09 12:47:00,56.7,17.1,30.13,North,0,0.0,0.0,21,0.00,,,0.00,WUHU216HW,2013-01-09 19:47:00,
2013-01-09 12:52:00,56.9,17.2,30.13,North,0,0.0,0.0,21,0.00,,,0.00,WUHU216HW,2013-01-09 19:52:00,
2013-01-09 12:57:00,57.1,18.4,30.12,North,0,0.0,0.0,22,0.00,,,0.00,WUHU216HW,2013-01-09 19:57:00,
2013-01-09 13:02:00,57.8,17.9,30.12,North,0,0.0,0.0,21,0.00,,,0.00,WUHU216HW,2013-01-09 20:02:00,
2013-01-09 13:07:00,57.8,17.0,30.12,North,0,0.0,0.0,20,0.00,,,0.00,WUHU216HW,2013-01-09 20:07:00,
2013-01-09 13:12:00,57.6,16.8,30.12,North,0,0.0,0.0,20,0.00,,,0.00,WUHU216HW,2013-01-09 20:12:00,
2013-01-09 13:17:00,57.8,17.9,30.12,North,0,0.0,0.0,21,0.00,,,0.00,WUHU216HW,2013-01-09 20:17:00,
2013-01-09 13:22:00,58.1,18.3,30.11,North,0,0.0,0.0,21,0.00,,,0.00,WUHU216HW,2013-01-09 20:22:00,
2013-01-09 13:27:00,58.7,17.7,30.11,North,0,0.0,0.0,20,0.00,,,0.00,WUHU216HW,2013-01-09 20:27:00,
2013-01-09 13:32:00,59.0,19.0,30.11,North,0,0.0,0.0,21,0.00,,,0.00,WUHU216HW,2013-01-09 20:32:00,
2013-01-09 13:37:00,59.0,19.0,30.11,North,0,0.0,0.0,21,0.00,,,0.00,WUHU216HW,2013-01-09 20:37:00,
2013-01-09 13:42:00,59.4,18.4,30.11,North,0,0.0,0.0,20,0.00,,,0.00,WUHU216HW,2013-01-09 20:42:00,
2013-01-09 13:47:00,59.4,19.3,30.11,North,0,0.0,0.0,21,0.00,,,0.00,WUHU216HW,2013-01-09 20:47:00,
2013-01-09 13:52:00,59.6,19.4,30.11,North,0,0.0,0.0,21,0.00,,,0.00,WUHU216HW,2013-01-09 20:52:00,
2013-01-09 13:57:00,59.9,19.8,30.10,North,0,0.0,0.0,21,0.00,,,0.00,WUHU216HW,2013-01-09 20:57:00,
2013-01-09 14:02:00,59.9,19.8,30.10,North,0,0.0,0.0,21,0.00,,,0.00,WUHU216HW,2013-01-09 21:02:00,
2013-01-09 14:07:00,59.8,17.1,30.10,North,0,0.0,0.0,19,0.00,,,0.00,WUHU216HW,2013-01-09 21:07:00,
2013-01-09 14:12:00,60.1,17.4,30.10,North,0,0.0,0.0,19,0.00,,,0.00,WUHU216HW,2013-01-09 21:12:00,
2013-01-09 14:17:00,60.1,17.4,30.10,North,0,0.0,0.0,19,0.00,,,0.00,WUHU216HW,2013-01-09 21:17:00,
2013-01-09 14:22:00,59.8,17.1,30.10,North,0,0.0,0.0,19,0.00,,,0.00,WUHU216HW,2013-01-09 21:22:00,
2013-01-09 14:27:00,59.6,16.9,30.10,North,0,0.0,0.0,19,0.00,,,0.00,WUHU216HW,2013-01-09 21:27:00,
2013-01-09 14:32:00,59.0,16.5,30.10,North,0,0.0,0.0,19,0.00,,,0.00,WUHU216HW,2013-01-09 21:32:00,
2013-01-09 14:37:00,59.0,15.0,30.10,North,0,0.0,0.0,18,0.00,,,0.00,WUHU216HW,2013-01-09 21:37:00,
2013-01-09 14:42:00,59.0,16.5,30.10,North,0,0.0,0.0,19,0.00,,,0.00,WUHU216HW,2013-01-09 21:42:00,
2013-01-09 14:47:00,58.9,14.8,30.10,North,0,0.0,0.0,18,0.00,,,0.00,WUHU216HW,2013-01-09 21:47:00,
2013-01-09 14:52:00,58.7,16.2,30.10,North,0,0.0,0.0,19,0.00,,,0.00,WUHU216HW,2013-01-09 21:52:00,
2013-01-09 14:57:00,58.5,17.6,30.10,North,0,0.0,0.0,20,0.00,,,0.00,WUHU216HW,2013-01-09 21:57:00,
2013-01-09 15:02:00,58.1,17.3,30.10,North,0,0.0,0.0,20,0.00,,,0.00,WUHU216HW,2013-01-09 22:02:00,
2013-01-09 15:07:00,58.0,17.1,30.10,North,0,0.0,0.0,20,0.00,,,0.00,WUHU216HW,2013-01-09 22:07:00,
2013-01-09 15:12:00,57.6,19.7,30.10,North,0,0.0,0.0,23,0.00,,,0.00,WUHU216HW,2013-01-09 22:12:00,
2013-01-09 15:17:00,56.5,20.7,30.10,North,0,0.0,0.0,25,0.00,,,0.00,WUHU216HW,2013-01-09 22:17:00,
2013-01-09 15:22:00,55.6,20.9,30.10,North,0,0.0,0.0,26,0.00,,,0.00,WUHU216HW,2013-01-09 22:22:00,
2013-01-09 15:27:00,54.9,21.3,30.10,North,0,0.0,0.0,27,0.00,,,0.00,WUHU216HW,2013-01-09 22:27:00,
2013-01-09 15:32:00,54.5,21.0,30.10,North,0,0.0,0.0,27,0.00,,,0.00,WUHU216HW,2013-01-09 22:32:00,
2013-01-09 15:37:00,54.2,20.6,30.10,North,0,0.0,0.0,27,0.00,,,0.00,WUHU216HW,2013-01-09 22:37:00,
2013-01-09 15:42:00,53.6,21.2,30.10,North,0,0.0,0.0,28,0.00,,,0.00,WUHU216HW,2013-01-09 22:42:00,
2013-01-09 15:47:00,53.3,20.8,30.10,North,0,0.0,0.0,28,0.00,,,0.00,WUHU216HW,2013-01-09 22:47:00,
2013-01-09 15:52:00,52.9,20.5,30.10,North,0,0.0,0.0,28,0.00,,,0.00,WUHU216HW,2013-01-09 22:52:00,
2013-01-09 15:57:00,52.6,20.2,30.10,North,0,0.0,0.0,28,0.00,,,0.00,WUHU216HW,2013-01-09 22:57:00,
2013-01-09 16:02:00,52.2,19.9,30.09,North,0,0.0,0.0,28,0.00,,,0.00,WUHU216HW,2013-01-09 23:02:00,
2013-01-09 16:07:00,51.8,20.5,30.09,North,0,0.0,0.0,29,0.00,,,0.00,WUHU216HW,2013-01-09 23:07:00,
2013-01-09 16:12:00,51.5,20.2,30.09,North,0,0.0,0.0,29,0.00,,,0.00,WUHU216HW,2013-01-09 23:12:00,
2013-01-09 16:17:00,51.1,19.8,30.08,North,0,0.0,0.0,29,0.00,,,0.00,WUHU216HW,2013-01-09 23:17:00,
2013-01-09 16:22:00,50.8,19.5,30.08,North,0,0.0,0.0,29,0.00,,,0.00,WUHU216HW,2013-01-09 23:22:00,
2013-01-09 16:27:00,50.4,20.2,30.08,North,0,0.0,0.0,30,0.00,,,0.00,WUHU216HW,2013-01-09 23:27:00,
2013-01-09 16:32:00,49.7,19.5,30.08,North,0,0.0,0.0,30,0.00,,,0.00,WUHU216HW,2013-01-09 23:32:00,
2013-01-09 16:37:00,49.3,19.9,30.08,North,0,0.0,0.0,31,0.00,,,0.00,WUHU216HW,2013-01-09 23:37:00,
2013-01-09 16:42:00,48.8,19.4,30.08,North,0,0.0,0.0,31,0.00,,,0.00,WUHU216HW,2013-01-09 23:42:00,
2013-01-09 16:47:00,48.1,18.9,30.08,North,0,0.0,0.0,31,0.00,,,0.00,WUHU216HW,2013-01-09 23:47:00,
2013-01-09 16:52:00,47.2,18.7,30.08,North,0,0.0,0.0,32,0.00,,,0.00,WUHU216HW,2013-01-09 23:52:00,
2013-01-09 16:57:00,46.4,18.1,30.08,North,0,0.0,0.0,32,0.00,,,0.00,WUHU216HW,2013-01-09 23:57:00,
2013-01-09 17:02:00,45.9,17.6,30.08,North,0,0.0,0.0,32,0.00,,,0.00,WUHU216HW,2013-01-10 00:02:00,
2013-01-09 17:07:00,45.2,17.7,30.08,North,0,0.0,0.0,33,0.00,,,0.00,WUHU216HW,2013-01-10 00:07:00,
2013-01-09 17:12:00,44.6,17.8,30.08,North,0,0.0,0.0,34,0.00,,,0.00,WUHU216HW,2013-01-10 00:12:00,
2013-01-09 17:17:00,44.1,17.3,30.08,North,0,0.0,0.0,34,0.00,,,0.00,WUHU216HW,2013-01-10 00:17:00,
2013-01-09 17:22:00,43.6,18.2,30.08,North,0,0.0,0.0,36,0.00,,,0.00,WUHU216HW,2013-01-10 00:22:00,
2013-01-09 17:27:00,43.2,17.8,30.08,North,0,0.0,0.0,36,0.00,,,0.00,WUHU216HW,2013-01-10 00:27:00,
2013-01-09 17:32:00,42.7,18.0,30.08,North,0,0.0,0.0,37,0.00,,,0.00,WUHU216HW,2013-01-10 00:32:00,
2013-01-09 17:37:00,42.1,18.8,30.08,North,0,0.0,0.0,39,0.00,,,0.00,WUHU216HW,2013-01-10 00:37:00,
2013-01-09 17:42:00,41.6,19.5,30.08,North,0,0.0,0.0,41,0.00,,,0.00,WUHU216HW,2013-01-10 00:42:00,
2013-01-09 17:47:00,41.2,19.3,30.08,North,0,0.0,0.0,41,0.00,,,0.00,WUHU216HW,2013-01-10 00:47:00,
2013-01-09 17:52:00,40.9,20.0,30.08,North,0,0.0,0.0,43,0.00,,,0.00,WUHU216HW,2013-01-10 00:52:00,
2013-01-09 17:57:00,40.5,19.1,30.08,North,0,0.0,0.0,42,0.00,,,0.00,WUHU216HW,2013-01-10 00:57:00,
2013-01-09 18:03:00,40.1,18.8,30.08,North,0,0.0,0.0,42,0.00,,,0.00,WUHU216HW,2013-01-10 01:03:00,
2013-01-09 18:08:00,39.6,18.8,30.08,North,0,0.0,0.0,43,0.00,,,0.00,WUHU216HW,2013-01-10 01:08:00,
2013-01-09 18:13:00,39.1,19.4,30.08,North,0,0.0,0.0,45,0.00,,,0.00,WUHU216HW,2013-01-10 01:13:00,
2013-01-09 18:18:00,38.5,18.9,30.08,North,0,0.0,0.0,45,0.00,,,0.00,WUHU216HW,2013-01-10 01:18:00,
2013-01-09 18:23:00,38.2,18.5,30.08,North,0,0.0,0.0,45,0.00,,,0.00,WUHU216HW,2013-01-10 01:23:00,
2013-01-09 18:28:00,37.8,18.3,30.08,North,0,0.0,0.0,45,0.00,,,0.00,WUHU216HW,2013-01-10 01:28:00,
2013-01-09 18:33:00,37.3,18.3,30.08,North,0,0.0,0.0,46,0.00,,,0.00,WUHU216HW,2013-01-10 01:33:00,
2013-01-09 18:38:00,37.1,18.1,30.08,North,0,0.0,0.0,46,0.00,,,0.00,WUHU216HW,2013-01-10 01:38:00,
2013-01-09 18:43:00,36.7,17.8,30.08,North,0,0.0,0.0,46,0.00,,,0.00,WUHU216HW,2013-01-10 01:43:00,
2013-01-09 18:48:00,36.4,18.0,30.08,North,0,0.0,0.0,47,0.00,,,0.00,WUHU216HW,2013-01-10 01:48:00,
2013-01-09 18:53:00,35.8,18.5,30.08,North,0,0.0,0.0,49,0.00,,,0.00,WUHU216HW,2013-01-10 01:53:00,
2013-01-09 18:58:00,35.6,18.4,30.07,North,0,0.0,0.0,49,0.00,,,0.00,WUHU216HW,2013-01-10 01:58:00,
2013-01-09 19:03:00,35.3,18.0,30.07,North,0,0.0,0.0,49,0.00,,,0.00,WUHU216HW,2013-01-10 02:03:00,
2013-01-09 19:08:00,35.3,18.0,30.07,North,0,0.0,0.0,49,0.00,,,0.00,WUHU216HW,2013-01-10 02:08:00,
2013-01-09 19:13:00,34.9,17.6,30.07,North,0,0.0,0.0,49,0.00,,,0.00,WUHU216HW,2013-01-10 02:13:00,
2013-01-09 19:18:00,34.7,17.0,30.07,North,0,0.0,0.0,48,0.00,,,0.00,WUHU216HW,2013-01-10 02:18:00,
2013-01-09 19:23:00,34.0,16.3,30.07,North,0,0.0,0.0,48,0.00,,,0.00,WUHU216HW,2013-01-10 02:23:00,
2013-01-09 19:28:00,33.1,17.3,30.07,North,0,0.0,0.0,52,0.00,,,0.00,WUHU216HW,2013-01-10 02:28:00,
2013-01-09 19:33:00,32.8,17.8,30.07,North,0,0.0,0.0,54,0.00,,,0.00,WUHU216HW,2013-01-10 02:33:00,
2013-01-09 19:38:00,32.4,16.7,30.07,North,0,0.0,0.0,52,0.00,,,0.00,WUHU216HW,2013-01-10 02:38:00,
2013-01-09 19:43:00,32.2,16.5,30.06,North,0,0.0,0.0,52,0.00,,,0.00,WUHU216HW,2013-01-10 02:43:00,
2013-01-09 19:48:00,31.9,16.7,30.06,North,0,0.0,0.0,53,0.00,,,0.00,WUHU216HW,2013-01-10 02:48:00,
2013-01-09 19:53:00,31.5,15.8,30.06,North,0,0.0,0.0,52,0.00,,,0.00,WUHU216HW,2013-01-10 02:53:00,
2013-01-09 19:58:00,31.3,15.7,30.06,North,0,0.0,0.0,52,0.00,,,0.00,WUHU216HW,2013-01-10 02:58:00,
2013-01-09 20:03:00,30.8,15.6,30.06,North,0,0.0,0.0,53,0.00,,,0.00,WUHU216HW,2013-01-10 03:03:00,
2013-01-09 20:08:00,30.4,16.6,30.06,North,0,0.0,0.0,56,0.00,,,0.00,WUHU216HW,2013-01-10 03:08:00,
2013-01-09 20:13:00,30.1,16.6,30.06,North,0,0.0,0.0,57,0.00,,,0.00,WUHU216HW,2013-01-10 03:13:00,
2013-01-09 20:18:00,29.9,16.8,30.06,North,0,0.0,0.0,58,0.00,,,0.00,WUHU216HW,2013-01-10 03:18:00,
2013-01-09 20:23:00,29.9,16.8,30.06,North,0,0.0,0.0,58,0.00,,,0.00,WUHU216HW,2013-01-10 03:23:00,
2013-01-09 20:28:00,29.9,16.5,30.06,North,0,0.0,0.0,57,0.00,,,0.00,WUHU216HW,2013-01-10 03:28:00,
2013-01-09 20:33:00,29.9,16.8,30.06,North,0,0.0,0.0,58,0.00,,,0.00,WUHU216HW,2013-01-10 03:33:00,
2013-01-09 20:38:00,29.5,17.7,30.05,North,0,0.0,0.0,61,0.00,,,0.00,WUHU216HW,2013-01-10 03:38:00,
2013-01-09 20:43:00,30.8,18.1,30.05,North,0,0.0,0.0,59,0.00,,,0.00,WUHU216HW,2013-01-10 03:43:00,
2013-01-09 20:48:00,32.6,18.5,30.05,North,0,0.0,0.0,56,0.00,,,0.00,WUHU216HW,2013-01-10 03:48:00,
2013-01-09 20:53:00,33.5,18.9,30.05,North,0,0.0,0.0,55,0.00,,,0.00,WUHU216HW,2013-01-10 03:53:00,
2013-01-09 20:58:00,33.8,18.4,30.04,North,0,0.0,0.0,53,0.00,,,0.00,WUHU216HW,2013-01-10 03:58:00,
2013-01-09 21:03:00,33.7,17.8,30.04,North,0,0.0,0.0,52,0.00,,,0.00,WUHU216HW,2013-01-10 04:03:00,
2013-01-09 21:08:00,32.9,17.2,30.04,North,0,0.0,0.0,52,0.00,,,0.00,WUHU216HW,2013-01-10 04:08:00,
2013-01-09 21:13:00,32.2,16.9,30.03,North,0,0.0,0.0,53,0.00,,,0.00,WUHU216HW,2013-01-10 04:13:00,
2013-01-09 21:18:00,31.7,16.0,30.03,North,0,0.0,0.0,52,0.00,,,0.00,WUHU216HW,2013-01-10 04:18:00,
2013-01-09 21:23:00,31.3,16.6,30.02,North,0,0.0,0.0,54,0.00,,,0.00,WUHU216HW,2013-01-10 04:23:00,
2013-01-09 21:28:00,31.5,16.8,30.02,North,0,0.0,0.0,54,0.00,,,0.00,WUHU216HW,2013-01-10 04:28:00,
2013-01-09 21:33:00,31.5,16.8,30.02,North,0,0.0,0.0,54,0.00,,,0.00,WUHU216HW,2013-01-10 04:33:00,
2013-01-09 21:38:00,31.3,16.1,30.02,North,0,0.0,0.0,53,0.00,,,0.00,WUHU216HW,2013-01-10 04:38:00,
2013-01-09 21:43:00,30.8,15.6,30.02,North,0,0.0,0.0,53,0.00,,,0.00,WUHU216HW,2013-01-10 04:43:00,
2013-01-09 21:48:00,30.2,15.1,30.02,North,0,0.0,0.0,53,0.00,,,0.00,WUHU216HW,2013-01-10 04:48:00,
2013-01-09 21:53:00,29.7,15.0,30.02,North,0,0.0,0.0,54,0.00,,,0.00,WUHU216HW,2013-01-10 04:53:00,
2013-01-09 21:58:00,29.2,14.6,30.02,North,0,0.0,0.0,54,0.00,,,0.00,WUHU216HW,2013-01-10 04:58:00,
2013-01-09 22:03:00,29.0,16.5,30.02,North,0,0.0,0.0,59,0.00,,,0.00,WUHU216HW,2013-01-10 05:03:00,
2013-01-09 22:08:00,29.2,15.8,30.02,North,0,0.0,0.0,57,0.00,,,0.00,WUHU216HW,2013-01-10 05:08:00,
2013-01-09 22:13:00,29.0,16.0,30.02,North,0,0.0,0.0,58,0.00,,,0.00,WUHU216HW,2013-01-10 05:13:00,
2013-01-09 22:18:00,28.8,15.8,30.02,North,0,0.0,0.0,58,0.00,,,0.00,WUHU216HW,2013-01-10 05:18:00,
2013-01-09 22:23:00,28.8,15.8,30.02,North,0,0.0,0.0,58,0.00,,,0.00,WUHU216HW,2013-01-10 05:23:00,
2013-01-09 22:28:00,28.6,16.6,30.02,North,0,0.0,0.0,60,0.00,,,0.00,WUHU216HW,2013-01-10 05:28:00,
2013-01-09 22:33:00,28.6,16.9,30.01,North,0,0.0,0.0,61,0.00,,,0.00,WUHU216HW,2013-01-10 05:33:00,
2013-01-09 22:38:00,28.4,15.9,30.01,North,0,0.0,0.0,59,0.00,,,0.00,WUHU216HW,2013-01-10 05:38:00,
2013-01-09 22:43:00,28.1,15.6,30.01,North,0,0.0,0.0,59,0.00,,,0.00,WUHU216HW,2013-01-10 05:43:00,
2013-01-09 22:48:00,27.7,15.2,30.01,North,0,0.0,0.0,59,0.00,,,0.00,WUHU216HW,2013-01-10 05:48:00,
2013-01-09 22:53:00,27.5,15.0,30.01,North,0,0.0,0.0,59,0.00,,,0.00,WUHU216HW,2013-01-10 05:53:00,
2013-01-09 22:58:00,27.0,14.1,30.00,North,0,0.0,0.0,58,0.00,,,0.00,WUHU216HW,2013-01-10 05:58:00,
2013-01-09 23:03:00,26.5,13.6,30.01,North,0,0.0,0.0,58,0.00,,,0.00,WUHU216HW,2013-01-10 06:03:00,
2013-01-09 23:08:00,26.1,13.7,30.01,North,0,0.0,0.0,59,0.00,,,0.00,WUHU216HW,2013-01-10 06:08:00,
2013-01-09 23:13:00,25.7,13.3,30.01,North,0,0.0,0.0,59,0.00,,,0.00,WUHU216HW,2013-01-10 06:13:00,
2013-01-09 23:18:00,25.6,13.2,30.00,North,0,0.0,0.0,59,0.00,,,0.00,WUHU216HW,2013-01-10 06:18:00,
2013-01-09 23:23:00,25.2,13.3,30.00,North,0,0.0,0.0,60,0.00,,,0.00,WUHU216HW,2013-01-10 06:23:00,
2013-01-09 23:28:00,25.0,13.2,29.99,North,0,0.0,0.0,60,0.00,,,0.00,WUHU216HW,2013-01-10 06:28:00,
2013-01-09 23:33:00,24.8,12.5,29.99,North,0,0.0,0.0,59,0.00,,,0.00,WUHU216HW,2013-01-10 06:33:00,
2013-01-09 23:38:00,24.7,12.3,29.99,North,0,0.0,0.0,59,0.00,,,0.00,WUHU216HW,2013-01-10 06:38:00,
2013-01-09 23:43:00,24.5,13.0,29.99,North,0,0.0,0.0,61,0.00,,,0.00,WUHU216HW,2013-01-10 06:43:00,
2013-01-09 23:48:00,24.5,13.3,29.99,North,0,0.0,0.0,62,0.00,,,0.00,WUHU216HW,2013-01-10 06:48:00,
2013-01-09 23:53:00,25.6,14.7,29.99,North,0,0.0,0.0,63,0.00,,,0.00,WUHU216HW,2013-01-10 06:53:00,
2013-01-09 23:58:00,26.8,15.5,29.99,North,0,0.0,0.0,62,0.00,,,0.00,WUHU216HW,2013-01-10 06:58:00,